Weather observations for the past three days for
Harry Reid International Airport
Imperial (Metric)
Date Time (pdt) Wind (mph) Vis. (mi.) Weather Sky Cond. Temperature (ºF) Relative Humidity Wind Chill (°F) Heat Index (°F) Pressure Precipitation (in)
Air Dwpt 6 hour altimeter (in) sea level (mb) 1 hr 3 hr 6 hr
Max. Min.
10 08:56 N 6 10.00 A Few Clouds FEW250 84 21 10% 81 29.99 1012.6
10 07:56 Calm 10.00 A Few Clouds FEW250 81 21.9 11% 79 29.99 1012.7
10 06:56 SW 6 10.00 A Few Clouds FEW250 75.9 24.1 14% 76 29.97 1012.0
10 05:56 SW 5 10.00 Fair CLR 73.9 21 14% 29.94 1011.0
10 04:56 SE 3 10.00 Fair CLR 80.1 19.9 89.1 80.1 11% 78 29.92 1010.0
10 03:56 NE 6 10.00 Fair CLR 81 19.9 10% 79 29.9 1009.5
10 02:56 NE 9 10.00 Fair CLR 82.9 19 9% 80 29.89 1009.0
10 01:56 NE 8 10.00 Fair CLR 82.9 18 9% 80 29.86 1008.2
10 00:56 Calm 10.00 Fair CLR 84.9 25 11% 82 29.85 1007.8
09 23:56 Calm 10.00 A Few Clouds FEW120 87.1 24.1 10% 84 29.84 1007.5
09 22:56 S 3 10.00 A Few Clouds FEW120 89.1 23 99 89.1 9% 85 29.82 1006.7
09 21:56 Calm 10.00 A Few Clouds FEW120 90 24.1 9% 86 29.81 1006.5
09 20:56 W 12 10.00 A Few Clouds FEW120 93 21 7% 88 29.8 1005.9
09 19:56 W 9 10.00 A Few Clouds FEW120 FEW250 95 23 7% 90 29.77 1005.2
09 18:56 Calm 10.00 A Few Clouds FEW120 97 23 7% 92 29.76 1004.9
09 17:56 Calm 10.00 A Few Clouds FEW120 98.1 19.9 6% 93 29.76 1004.9
09 16:56 Calm 10.00 A Few Clouds FEW120 99 19 99 90 5% 93 29.77 1005.2
09 15:56 Vrbl 5 10.00 A Few Clouds FEW120 99 19.9 6% 93 29.78 1005.4
09 14:56 Calm 10.00 A Few Clouds FEW120 98.1 23 7% 93 29.82 1006.6
09 13:56 N 6 10.00 A Few Clouds FEW120 97 24.1 7% 92 29.85 1007.6
09 12:56 Calm 10.00 A Few Clouds FEW120 93.9 25 8% 89 29.87 1008.3
09 11:56 E 7 10.00 A Few Clouds FEW120 93.9 24.1 8% 89 29.89 1009.0
09 10:56 S 5 10.00 A Few Clouds FEW120 90 23 91 73.9 9% 86 29.9 1009.5
09 09:56 NE 6 10.00 A Few Clouds FEW120 89.1 23 9% 85 29.9 1009.5
09 08:56 Vrbl 5 10.00 Fair CLR 86 26.1 11% 83 29.9 1009.6
09 07:56 N 5 10.00 Fair CLR 82 23 11% 80 29.9 1009.6
09 06:56 Calm 10.00 Fair CLR 78.1 32 19% 77 29.88 1009.2
09 05:56 N 3 10.00 Fair CLR 75 30.9 20% 76 29.86 1008.4
09 04:56 W 5 10.00 Fair CLR 75.9 32 87.1 75.9 20% 76 29.84 1007.7
09 03:56 S 8 10.00 Fair CLR 79 30.9 17% 78 29.83 1007.0
09 02:56 S 6 10.00 Fair CLR 81 32 17% 79 29.83 1006.9
09 01:56 S 7 10.00 Fair CLR 82 30.9 16% 80 29.83 1006.9
09 00:56 S 6 10.00 Fair CLR 82.9 26.1 12% 80 29.83 1007.2
08 23:56 SW 8 10.00 Fair CLR 84.9 25 11% 82 29.82 1006.7
08 22:56 SW 8 10.00 Fair CLR 87.1 26.1 98.1 87.1 11% 84 29.82 1006.6
08 21:56 SW 9 10.00 Fair CLR 88 25 10% 84 29.81 1006.7
08 20:56 SW 8 10.00 Fair CLR 90 21.9 8% 86 29.8 1006.3
08 19:56 W 8 10.00 A Few Clouds FEW250 93.9 21.9 7% 89 29.79 1005.8
08 18:56 SW 10 10.00 A Few Clouds FEW250 96.1 24.1 7% 91 29.77 1005.4
08 17:56 SW 14 10.00 A Few Clouds FEW250 98.1 24.1 7% 93 29.77 1005.4
08 16:56 SW 14 G 18 10.00 Fair CLR 99 24.1 100 90 7% 93 29.78 1005.8
08 15:56 W 9 G 23 10.00 A Few Clouds FEW250 98.1 23 7% 93 29.8 1006.3
08 14:56 S 9 10.00 A Few Clouds FEW250 98.1 27 8% 93 29.82 1007.0
08 13:56 S 6 G 18 10.00 Fair CLR 97 26.1 8% 92 29.85 1008.0
08 12:56 NW 6 10.00 Fair CLR 95 26.1 8% 90 29.88 1008.8
08 11:56 N 6 10.00 Fair CLR 93.9 27 9% 89 29.9 1009.6
08 10:56 Calm 10.00 Fair CLR 90 28 91 73 11% 86 29.91 1010.1
08 09:56 Calm 10.00 Fair CLR 88 28.9 12% 84 29.92 1010.5
08 08:56 Vrbl 3 10.00 Fair CLR 86 30.9 14% 83 29.92 1010.3
08 07:56 Vrbl 3 10.00 Fair CLR 80.1 34 19% 79 29.92 1010.5
08 06:56 SW 5 10.00 Fair CLR 75.9 30 18% 76 29.9 1010.0
08 05:56 S 7 10.00 Fair CLR 73 27 18% 29.88 1009.3
08 04:56 S 7 10.00 Fair CLR 73.9 27 82.9 73 17% 29.87 1009.0
08 03:56 Calm 10.00 Fair CLR 73.9 27 17% 29.87 1008.9
08 02:56 SW 3 10.00 A Few Clouds FEW250 78.1 26.1 15% 77 29.86 1008.5
08 01:56 S 6 10.00 Fair CLR 77 24.1 14% 76 29.86 1008.5
08 00:56 S 6 10.00 Fair CLR 80.1 25 13% 78 29.86 1008.7
07 23:56 S 6 10.00 Fair CLR 81 24.1 12% 79 29.86 1008.8
07 22:56 S 5 10.00 A Few Clouds FEW250 82 24.1 91.9 82 12% 80 29.86 1008.7
07 21:56 SW 7 10.00 A Few Clouds FEW250 84 25 11% 81 29.86 1008.6
07 20:56 SW 9 10.00 A Few Clouds FEW250 87.1 25 10% 84 29.85 1008.3
07 19:56 SW 7 10.00 A Few Clouds FEW250 89.1 27 11% 85 29.84 1007.9
07 18:56 SE 3 10.00 A Few Clouds FEW140 FEW250 91 27 10% 87 29.83 1007.7
07 17:56 Vrbl 3 10.00 A Few Clouds FEW140 FEW250 91 26.1 9% 87 29.83 1008.0
07 16:56 N 7 10.00 A Few Clouds FEW140 FEW250 91.9 25 91.9 81 9% 88 29.85 1008.4
07 15:56 Calm 10.00 A Few Clouds FEW140 FEW250 91 24.1 9% 87 29.87 1008.9
07 14:56 Vrbl 6 10.00 A Few Clouds FEW140 FEW250 89.1 24.1 9% 85 29.9 1010.1
07 13:56 Vrbl 6 10.00 A Few Clouds FEW140 88 23 9% 84 29.93 1011.2
07 12:56 S 5 10.00 Fair CLR 86 21 9% 83 29.96 1012.2
07 11:56 Vrbl 5 10.00 Fair CLR 84.9 17.1 8% 82 30 1013.5
07 10:56 NE 6 10.00 Fair CLR 82 17.1 82 66 9% 80 30.02 1014.2
Date Time (pdt) Wind (mph) Vis. (mi.) Weather Sky Cond. Air Dwpt Max. Min. Relative Humidity Wind Chill (°F) Heat Index (°F) altimeter (in) sea level (mb) 1 hr 3 hr 6 hr
6 hour
Temperature (ºF) Pressure Precipitation (in)